sensor_id;sensor_type;location;lat;lon;timestamp;pressure;altitude;pressure_sealevel;temperature;humidity
17309;BME280;8772;42.804;23.426;2023-04-01T00:01:00;73155.31;;;-140.58;73.82
17309;BME280;8772;42.804;23.426;2023-04-01T00:03:28;73161.47;;;-140.58;73.39
17309;BME280;8772;42.804;23.426;2023-04-01T00:05:56;73147.09;;;-140.58;71.52
17309;BME280;8772;42.804;23.426;2023-04-01T00:08:24;73128.66;;;-140.58;68.28
17309;BME280;8772;42.804;23.426;2023-04-01T00:10:53;73116.34;;;-140.58;66.83
17309;BME280;8772;42.804;23.426;2023-04-01T00:13:21;73099.94;;;-140.58;66.21
17309;BME280;8772;42.804;23.426;2023-04-01T00:15:48;73095.81;;;-140.58;65.24
17309;BME280;8772;42.804;23.426;2023-04-01T00:18:15;73085.56;;;-140.58;64.84
17309;BME280;8772;42.804;23.426;2023-04-01T00:20:43;73063.00;;;-140.58;65.40
17309;BME280;8772;42.804;23.426;2023-04-01T00:23:11;73067.13;;;-140.58;62.27
17309;BME280;8772;42.804;23.426;2023-04-01T00:25:37;73067.13;;;-140.58;62.95
17309;BME280;8772;42.804;23.426;2023-04-01T00:28:06;73050.72;;;-140.58;62.49
17309;BME280;8772;42.804;23.426;2023-04-01T00:30:33;73034.31;;;-140.58;64.20
17309;BME280;8772;42.804;23.426;2023-04-01T00:32:59;73019.94;;;-140.58;62.81
17309;BME280;8772;42.804;23.426;2023-04-01T00:35:26;73017.91;;;-140.58;60.18
17309;BME280;8772;42.804;23.426;2023-04-01T00:37:54;73007.63;;;-140.58;58.83
17309;BME280;8772;42.804;23.426;2023-04-01T00:40:25;73003.53;;;-140.58;59.88
17309;BME280;8772;42.804;23.426;2023-04-01T00:42:52;72978.91;;;-140.58;57.12
17309;BME280;8772;42.804;23.426;2023-04-01T00:45:31;72980.97;;;-140.58;59.20
17309;BME280;8772;42.804;23.426;2023-04-01T00:48:00;72970.72;;;-140.58;58.32
17309;BME280;8772;42.804;23.426;2023-04-01T00:50:28;72952.25;;;-140.58;55.74
17309;BME280;8772;42.804;23.426;2023-04-01T00:52:58;72956.38;;;-140.58;58.96
17309;BME280;8772;42.804;23.426;2023-04-01T00:55:27;72972.78;;;-140.58;58.72
17309;BME280;8772;42.804;23.426;2023-04-01T00:57:57;72968.66;;;-140.58;58.23
17309;BME280;8772;42.804;23.426;2023-04-01T01:00:26;72978.91;;;-140.58;58.96
17309;BME280;8772;42.804;23.426;2023-04-01T01:02:53;72956.38;;;-140.58;56.01
17309;BME280;8772;42.804;23.426;2023-04-01T01:08:47;72960.47;;;-140.58;58.49
17309;BME280;8772;42.804;23.426;2023-04-01T01:11:22;72952.25;;;-140.58;59.90
17309;BME280;8772;42.804;23.426;2023-04-01T01:13:57;72952.25;;;-140.58;60.26
17309;BME280;8772;42.804;23.426;2023-04-01T01:16:34;72954.31;;;-140.58;59.73
17309;BME280;8772;42.804;23.426;2023-04-01T01:19:09;72985.06;;;-140.58;60.89
17309;BME280;8772;42.804;23.426;2023-04-01T01:21:59;72997.38;;;-140.58;61.33
17309;BME280;8772;42.804;23.426;2023-04-01T01:24:42;73009.69;;;-140.58;61.54
17309;BME280;8772;42.804;23.426;2023-04-01T01:27:11;73040.44;;;-140.58;63.13
17309;BME280;8772;42.804;23.426;2023-04-01T01:30:00;73056.84;;;-140.58;63.38
17309;BME280;8772;42.804;23.426;2023-04-01T01:32:55;73067.13;;;-140.58;65.88
17309;BME280;8772;42.804;23.426;2023-04-01T01:35:30;73063.00;;;-140.58;65.48
17309;BME280;8772;42.804;23.426;2023-04-01T01:38:01;73112.25;;;-140.58;70.32
17309;BME280;8772;42.804;23.426;2023-04-01T01:40:31;73087.63;;;-140.58;68.86
17309;BME280;8772;42.804;23.426;2023-04-01T01:43:03;73079.41;;;-140.58;68.62
17309;BME280;8772;42.804;23.426;2023-04-01T01:45:33;73079.41;;;-140.58;68.71
17309;BME280;8772;42.804;23.426;2023-04-01T01:48:04;73079.41;;;-140.58;68.52
17309;BME280;8772;42.804;23.426;2023-04-01T01:50:33;73091.72;;;-140.58;70.25
17309;BME280;8772;42.804;23.426;2023-04-01T01:53:02;73091.72;;;-140.58;69.66
17309;BME280;8772;42.804;23.426;2023-04-01T01:55:31;73106.09;;;-140.58;70.48
17309;BME280;8772;42.804;23.426;2023-04-01T01:58:02;73140.94;;;-140.58;73.57
17309;BME280;8772;42.804;23.426;2023-04-01T02:00:32;73124.53;;;-140.58;72.76
17309;BME280;8772;42.804;23.426;2023-04-01T02:03:00;73143.00;;;-140.58;73.49
17309;BME280;8772;42.804;23.426;2023-04-01T02:05:28;73194.28;;;-140.58;79.31
17309;BME280;8772;42.804;23.426;2023-04-01T02:08:01;73206.59;;;-140.58;80.91
17309;BME280;8772;42.804;23.426;2023-04-01T02:10:33;73223.00;;;-140.58;84.57
17309;BME280;8772;42.804;23.426;2023-04-01T02:13:07;73243.50;;;-140.58;87.07
17309;BME280;8772;42.804;23.426;2023-04-01T02:15:40;73235.31;;;-140.58;89.42
17309;BME280;8772;42.804;23.426;2023-04-01T02:18:09;73231.19;;;-140.58;89.90
17309;BME280;8772;42.804;23.426;2023-04-01T02:20:38;73243.50;;;-140.58;88.85
17309;BME280;8772;42.804;23.426;2023-04-01T02:23:08;73241.47;;;-140.58;89.13
17309;BME280;8772;42.804;23.426;2023-04-01T02:25:37;73237.34;;;-140.58;89.64
17309;BME280;8772;42.804;23.426;2023-04-01T02:28:06;73233.25;;;-140.58;89.75
17309;BME280;8772;42.804;23.426;2023-04-01T02:30:36;73218.91;;;-140.58;90.38
17309;BME280;8772;42.804;23.426;2023-04-01T02:33:05;73227.09;;;-140.58;90.17
17309;BME280;8772;42.804;23.426;2023-04-01T02:35:33;73218.91;;;-140.58;88.48
17309;BME280;8772;42.804;23.426;2023-04-01T02:38:02;73212.75;;;-140.58;87.03
17309;BME280;8772;42.804;23.426;2023-04-01T02:40:41;73210.69;;;-140.58;86.11
17309;BME280;8772;42.804;23.426;2023-04-01T02:43:08;73202.47;;;-140.58;85.37
17309;BME280;8772;42.804;23.426;2023-04-01T02:45:35;73198.38;;;-140.58;82.59
17309;BME280;8772;42.804;23.426;2023-04-01T02:48:02;73190.19;;;-140.58;83.44
17309;BME280;8772;42.804;23.426;2023-04-01T02:50:29;73208.63;;;-140.58;86.88
17309;BME280;8772;42.804;23.426;2023-04-01T02:52:56;73200.44;;;-140.58;86.63
17309;BME280;8772;42.804;23.426;2023-04-01T02:55:23;73196.34;;;-140.58;85.21
17309;BME280;8772;42.804;23.426;2023-04-01T02:57:51;73204.53;;;-140.58;86.70
17309;BME280;8772;42.804;23.426;2023-04-01T03:00:18;73200.44;;;-140.58;85.79
17309;BME280;8772;42.804;23.426;2023-04-01T03:02:45;73194.28;;;-140.58;85.58
17309;BME280;8772;42.804;23.426;2023-04-01T03:05:12;73202.47;;;-140.58;84.75
17309;BME280;8772;42.804;23.426;2023-04-01T03:07:39;73194.28;;;-140.58;82.61
17309;BME280;8772;42.804;23.426;2023-04-01T03:10:07;73175.81;;;-140.58;83.27
17309;BME280;8772;42.804;23.426;2023-04-01T03:12:34;73171.72;;;-140.58;82.55
17309;BME280;8772;42.804;23.426;2023-04-01T03:15:02;73153.25;;;-140.58;80.53
17309;BME280;8772;42.804;23.426;2023-04-01T03:17:29;73149.16;;;-140.58;82.47
17309;BME280;8772;42.804;23.426;2023-04-01T03:19:56;73140.94;;;-140.58;81.11
17309;BME280;8772;42.804;23.426;2023-04-01T03:22:23;73149.16;;;-140.58;82.07
17309;BME280;8772;42.804;23.426;2023-04-01T03:24:50;73145.06;;;-140.58;85.55
17309;BME280;8772;42.804;23.426;2023-04-01T03:27:17;73136.84;;;-140.58;81.83
17309;BME280;8772;42.804;23.426;2023-04-01T03:29:44;73132.75;;;-140.58;85.01
17309;BME280;8772;42.804;23.426;2023-04-01T03:32:12;73140.94;;;-140.58;86.52
17309;BME280;8772;42.804;23.426;2023-04-01T03:34:39;73124.53;;;-140.58;85.86
17309;BME280;8772;42.804;23.426;2023-04-01T03:37:06;73120.44;;;-140.58;88.48
17309;BME280;8772;42.804;23.426;2023-04-01T03:39:33;73108.13;;;-140.58;84.52
17309;BME280;8772;42.804;23.426;2023-04-01T03:42:00;73091.72;;;-140.58;79.13
17309;BME280;8772;42.804;23.426;2023-04-01T03:44:30;73067.13;;;-140.58;76.30
17309;BME280;8772;42.804;23.426;2023-04-01T03:46:58;73048.66;;;-140.58;74.04
17309;BME280;8772;42.804;23.426;2023-04-01T03:49:26;73026.09;;;-140.58;72.47
17309;BME280;8772;42.804;23.426;2023-04-01T03:51:53;73003.53;;;-140.58;71.47
17309;BME280;8772;42.804;23.426;2023-04-01T03:54:20;72989.19;;;-140.58;67.54
17309;BME280;8772;42.804;23.426;2023-04-01T03:56:47;72972.78;;;-140.58;68.95
17309;BME280;8772;42.804;23.426;2023-04-01T03:59:14;72972.78;;;-140.58;72.49
17309;BME280;8772;42.804;23.426;2023-04-01T04:01:41;72952.25;;;-140.58;73.49
17309;BME280;8772;42.804;23.426;2023-04-01T04:04:10;72972.78;;;-140.58;79.60
17309;BME280;8772;42.804;23.426;2023-04-01T04:06:39;72956.38;;;-140.58;77.91
17309;BME280;8772;42.804;23.426;2023-04-01T04:09:06;72956.38;;;-140.58;78.45
17309;BME280;8772;42.804;23.426;2023-04-01T04:11:33;72935.84;;;-140.58;84.25
17309;BME280;8772;42.804;23.426;2023-04-01T04:14:00;72944.06;;;-140.58;83.79
17309;BME280;8772;42.804;23.426;2023-04-01T04:16:27;72935.84;;;-140.58;88.56
17309;BME280;8772;42.804;23.426;2023-04-01T04:18:54;72948.16;;;-140.58;90.71
17309;BME280;8772;42.804;23.426;2023-04-01T04:21:21;72944.06;;;-140.58;86.43
17309;BME280;8772;42.804;23.426;2023-04-01T04:23:49;72956.38;;;-140.58;87.47
17309;BME280;8772;42.804;23.426;2023-04-01T04:26:17;72939.97;;;-140.58;84.52
17309;BME280;8772;42.804;23.426;2023-04-01T04:28:44;72937.91;;;-140.58;85.34
17309;BME280;8772;42.804;23.426;2023-04-01T04:31:11;72935.84;;;-140.58;85.68
17309;BME280;8772;42.804;23.426;2023-04-01T04:33:38;72923.56;;;-140.58;85.03
17309;BME280;8772;42.804;23.426;2023-04-01T04:36:06;72939.97;;;-140.58;87.93
17309;BME280;8772;42.804;23.426;2023-04-01T04:38:32;72935.84;;;-140.58;87.49
17309;BME280;8772;42.804;23.426;2023-04-01T04:41:01;72937.91;;;-140.58;86.79
17309;BME280;8772;42.804;23.426;2023-04-01T04:43:28;72933.81;;;-140.58;89.14
17309;BME280;8772;42.804;23.426;2023-04-01T04:45:54;72935.84;;;-140.58;87.10
17309;BME280;8772;42.804;23.426;2023-04-01T04:48:21;72935.84;;;-140.58;88.27
17309;BME280;8772;42.804;23.426;2023-04-01T04:50:50;72917.41;;;-140.58;86.02
17309;BME280;8772;42.804;23.426;2023-04-01T04:53:17;72919.44;;;-140.58;84.18
17309;BME280;8772;42.804;23.426;2023-04-01T04:55:45;72923.56;;;-140.58;86.39
17309;BME280;8772;42.804;23.426;2023-04-01T04:58:14;72921.50;;;-140.58;83.52
17309;BME280;8772;42.804;23.426;2023-04-01T05:00:41;72917.41;;;-140.58;83.93
17309;BME280;8772;42.804;23.426;2023-04-01T05:03:08;72917.41;;;-140.58;82.91
17309;BME280;8772;42.804;23.426;2023-04-01T05:05:35;72919.44;;;-140.58;87.86
17309;BME280;8772;42.804;23.426;2023-04-01T05:08:02;72927.66;;;-140.58;87.83
17309;BME280;8772;42.804;23.426;2023-04-01T05:10:29;72901.00;;;-140.58;89.39
17309;BME280;8772;42.804;23.426;2023-04-01T05:12:57;72884.59;;;-140.58;88.87
17309;BME280;8772;42.804;23.426;2023-04-01T05:15:25;72905.09;;;-140.58;87.92
17309;BME280;8772;42.804;23.426;2023-04-01T05:17:52;72870.22;;;-140.58;84.91
17309;BME280;8772;42.804;23.426;2023-04-01T05:20:19;72876.38;;;-140.58;87.26
17309;BME280;8772;42.804;23.426;2023-04-01T05:22:46;72890.72;;;-140.58;89.60
17309;BME280;8772;42.804;23.426;2023-04-01T05:25:12;72886.63;;;-140.58;89.50
17309;BME280;8772;42.804;23.426;2023-04-01T05:27:39;72878.44;;;-140.58;88.36
17309;BME280;8772;42.804;23.426;2023-04-01T05:30:07;72878.44;;;-140.58;88.94
17309;BME280;8772;42.804;23.426;2023-04-01T05:32:35;72872.28;;;-140.58;88.92
17309;BME280;8772;42.804;23.426;2023-04-01T05:35:03;72862.03;;;-140.58;89.19
17309;BME280;8772;42.804;23.426;2023-04-01T05:37:30;72870.22;;;-140.58;89.63
17309;BME280;8772;42.804;23.426;2023-04-01T05:39:56;72878.44;;;-140.58;90.03
17309;BME280;8772;42.804;23.426;2023-04-01T05:42:24;72882.53;;;-140.58;90.94
17309;BME280;8772;42.804;23.426;2023-04-01T05:44:51;72864.06;;;-140.58;89.93
17309;BME280;8772;42.804;23.426;2023-04-01T05:47:18;72841.50;;;-140.58;87.85
17309;BME280;8772;42.804;23.426;2023-04-01T05:49:46;72839.47;;;-140.58;85.05
17309;BME280;8772;42.804;23.426;2023-04-01T05:52:13;72831.25;;;-140.58;83.99
17309;BME280;8772;42.804;23.426;2023-04-01T05:54:40;72810.75;;;-140.58;84.72
17309;BME280;8772;42.804;23.426;2023-04-01T05:57:07;72800.50;;;-140.58;84.97
17309;BME280;8772;42.804;23.426;2023-04-01T05:59:34;72782.03;;;-140.58;86.17
17309;BME280;8772;42.804;23.426;2023-04-01T06:02:01;72763.59;;;-140.58;87.38
17309;BME280;8772;42.804;23.426;2023-04-01T06:04:34;72738.97;;;-140.58;86.94
17309;BME280;8772;42.804;23.426;2023-04-01T06:07:08;72722.56;;;-140.58;87.83
17309;BME280;8772;42.804;23.426;2023-04-01T06:09:37;72697.97;;;-140.58;87.19
17309;BME280;8772;42.804;23.426;2023-04-01T06:12:29;72677.44;;;-140.58;84.51
17309;BME280;8772;42.804;23.426;2023-04-01T06:15:08;72656.94;;;-140.58;83.85
17309;BME280;8772;42.804;23.426;2023-04-01T06:17:50;72626.19;;;-140.58;82.65
17309;BME280;8772;42.804;23.426;2023-04-01T06:20:24;72605.66;;;-140.58;82.27
17309;BME280;8772;42.804;23.426;2023-04-01T06:23:09;72589.25;;;-140.58;79.90
17309;BME280;8772;42.804;23.426;2023-04-01T06:25:49;72566.72;;;-140.58;77.96
17309;BME280;8772;42.804;23.426;2023-04-01T06:28:56;72533.91;;;-140.58;75.21
17309;BME280;8772;42.804;23.426;2023-04-01T06:31:48;72505.19;;;-140.58;72.97
17309;BME280;8772;42.804;23.426;2023-04-01T06:34:30;72482.63;;;-140.58;69.82
17309;BME280;8772;42.804;23.426;2023-04-01T06:37:14;72462.13;;;-140.58;68.17
17309;BME280;8772;42.804;23.426;2023-04-01T06:40:12;72439.56;;;-140.58;64.45
17309;BME280;8772;42.804;23.426;2023-04-01T06:42:51;72421.09;;;-140.58;57.30
17309;BME280;8772;42.804;23.426;2023-04-01T06:45:30;72414.97;;;-140.58;58.03
17309;BME280;8772;42.804;23.426;2023-04-01T06:48:12;72410.84;;;-140.58;55.41
17309;BME280;8772;42.804;23.426;2023-04-01T06:50:49;72398.56;;;-140.58;55.90
17309;BME280;8772;42.804;23.426;2023-04-01T06:53:26;72392.41;;;-140.58;53.71
17309;BME280;8772;42.804;23.426;2023-04-01T06:56:00;72396.50;;;-140.58;51.52
17309;BME280;8772;42.804;23.426;2023-04-01T06:58:36;72384.19;;;-140.58;52.42
17309;BME280;8772;42.804;23.426;2023-04-01T07:01:08;72353.44;;;-140.58;50.99
17309;BME280;8772;42.804;23.426;2023-04-01T07:03:39;72349.34;;;-140.58;51.06
17309;BME280;8772;42.804;23.426;2023-04-01T07:06:11;72357.53;;;-140.58;49.28
17309;BME280;8772;42.804;23.426;2023-04-01T07:08:43;72361.66;;;-140.58;49.77
17309;BME280;8772;42.804;23.426;2023-04-01T07:11:17;72332.94;;;-140.58;49.50
17309;BME280;8772;42.804;23.426;2023-04-01T07:13:51;72332.94;;;-140.58;49.07
17309;BME280;8772;42.804;23.426;2023-04-01T07:16:23;72314.47;;;-140.58;48.15
17309;BME280;8772;42.804;23.426;2023-04-01T07:18:54;72287.81;;;-140.58;49.59
17309;BME280;8772;42.804;23.426;2023-04-01T07:21:27;72267.31;;;-140.58;48.22
17309;BME280;8772;42.804;23.426;2023-04-01T07:23:59;72255.00;;;-140.58;48.87
17309;BME280;8772;42.804;23.426;2023-04-01T07:26:31;72242.72;;;-140.58;47.01
17309;BME280;8772;42.804;23.426;2023-04-01T07:28:58;72220.16;;;-140.58;47.48
17309;BME280;8772;42.804;23.426;2023-04-01T07:31:36;72205.81;;;-140.58;47.34
17309;BME280;8772;42.804;23.426;2023-04-01T07:34:12;72197.59;;;-140.58;46.38
17309;BME280;8772;42.804;23.426;2023-04-01T07:36:45;72181.19;;;-140.58;46.11
17309;BME280;8772;42.804;23.426;2023-04-01T07:39:23;72170.94;;;-140.58;45.68
17309;BME280;8772;42.804;23.426;2023-04-01T07:42:00;72168.91;;;-140.58;44.05
17309;BME280;8772;42.804;23.426;2023-04-01T07:44:36;72177.09;;;-140.58;44.40
17309;BME280;8772;42.804;23.426;2023-04-01T07:47:18;72164.78;;;-140.58;43.80
17309;BME280;8772;42.804;23.426;2023-04-01T07:49:58;72168.91;;;-140.58;44.42
17309;BME280;8772;42.804;23.426;2023-04-01T07:52:34;72156.59;;;-140.58;44.53
17309;BME280;8772;42.804;23.426;2023-04-01T07:55:06;72148.38;;;-140.58;45.09
17309;BME280;8772;42.804;23.426;2023-04-01T07:57:38;72144.28;;;-140.58;44.27
17309;BME280;8772;42.804;23.426;2023-04-01T08:00:14;72140.19;;;-140.58;43.97
17309;BME280;8772;42.804;23.426;2023-04-01T08:02:58;72129.94;;;-140.58;44.38
17309;BME280;8772;42.804;23.426;2023-04-01T08:05:34;72119.69;;;-140.58;43.43
17309;BME280;8772;42.804;23.426;2023-04-01T08:08:12;72113.53;;;-140.58;43.85
17309;BME280;8772;42.804;23.426;2023-04-01T08:10:47;72121.72;;;-140.58;42.57
17309;BME280;8772;42.804;23.426;2023-04-01T08:13:27;72119.69;;;-140.58;42.55
17309;BME280;8772;42.804;23.426;2023-04-01T08:16:05;72105.34;;;-140.58;43.08
17309;BME280;8772;42.804;23.426;2023-04-01T08:18:43;72074.56;;;-140.58;44.40
17309;BME280;8772;42.804;23.426;2023-04-01T08:21:15;72054.06;;;-140.58;43.46
17309;BME280;8772;42.804;23.426;2023-04-01T08:23:47;72041.78;;;-140.58;44.12
17309;BME280;8772;42.804;23.426;2023-04-01T08:26:23;72037.66;;;-140.58;43.10
17309;BME280;8772;42.804;23.426;2023-04-01T08:28:58;72008.97;;;-140.58;43.37
17309;BME280;8772;42.804;23.426;2023-04-01T08:31:31;72029.47;;;-140.58;43.53
17309;BME280;8772;42.804;23.426;2023-04-01T08:34:00;72019.22;;;-140.58;42.84
17309;BME280;8772;42.804;23.426;2023-04-01T08:36:32;72008.97;;;-140.58;44.55
17309;BME280;8772;42.804;23.426;2023-04-01T08:39:04;71996.66;;;-140.58;44.18
17309;BME280;8772;42.804;23.426;2023-04-01T08:47:45;71955.66;;;-140.58;44.18
17309;BME280;8772;42.804;23.426;2023-04-01T08:50:30;71953.59;;;-140.58;43.79
17309;BME280;8772;42.804;23.426;2023-04-01T08:53:07;71929.00;;;-140.58;42.95
17309;BME280;8772;42.804;23.426;2023-04-01T08:55:53;71873.63;;;-140.58;41.15
17309;BME280;8772;42.804;23.426;2023-04-01T08:58:43;71857.25;;;-140.58;41.45
17309;BME280;8772;42.804;23.426;2023-04-01T09:01:26;71795.72;;;-140.58;42.05
17309;BME280;8772;42.804;23.426;2023-04-01T09:04:17;71738.31;;;-140.58;40.18
17309;BME280;8772;42.804;23.426;2023-04-01T09:07:06;71664.53;;;-140.58;39.69
17309;BME280;8772;42.804;23.426;2023-04-01T09:10:03;71611.22;;;-140.58;39.40
17309;BME280;8772;42.804;23.426;2023-04-01T09:12:58;71568.16;;;-140.58;36.27
17309;BME280;8772;42.804;23.426;2023-04-01T09:15:54;71543.56;;;-140.58;34.82
17309;BME280;8772;42.804;23.426;2023-04-01T09:21:43;71488.22;;;-140.58;34.60
17309;BME280;8772;42.804;23.426;2023-04-01T09:24:40;71443.09;;;-140.58;33.27
17309;BME280;8772;42.804;23.426;2023-04-01T09:27:26;71412.34;;;-140.58;34.40
17309;BME280;8772;42.804;23.426;2023-04-01T09:30:11;71400.06;;;-140.58;33.81
17309;BME280;8772;42.804;23.426;2023-04-01T09:32:56;71385.72;;;-140.58;34.12
17309;BME280;8772;42.804;23.426;2023-04-01T09:35:36;71428.75;;;-140.58;31.52
17309;BME280;8772;42.804;23.426;2023-04-01T09:38:21;71385.72;;;-140.58;32.62
17309;BME280;8772;42.804;23.426;2023-04-01T09:40:55;71373.41;;;-140.58;33.52
17309;BME280;8772;42.804;23.426;2023-04-01T09:43:43;71385.72;;;-140.58;32.63
17309;BME280;8772;42.804;23.426;2023-04-01T09:46:20;71369.31;;;-140.58;32.71
17309;BME280;8772;42.804;23.426;2023-04-01T09:52:00;71404.16;;;-140.58;33.23
17309;BME280;8772;42.804;23.426;2023-04-01T09:54:44;71482.06;;;-140.58;32.40
17309;BME280;8772;42.804;23.426;2023-04-01T09:57:40;71512.81;;;-140.58;32.28
17309;BME280;8772;42.804;23.426;2023-04-01T10:00:40;71480.00;;;-140.58;31.56
17309;BME280;8772;42.804;23.426;2023-04-01T10:10:07;71441.06;;;-140.58;32.21
17309;BME280;8772;42.804;23.426;2023-04-01T10:16:03;71463.59;;;-140.58;31.77
17309;BME280;8772;42.804;23.426;2023-04-01T10:19:10;71471.81;;;-140.58;31.81
17309;BME280;8772;42.804;23.426;2023-04-01T10:22:08;71537.41;;;-140.58;32.47
17309;BME280;8772;42.804;23.426;2023-04-01T10:28:01;71525.13;;;-140.58;32.93
17309;BME280;8772;42.804;23.426;2023-04-01T10:30:58;71537.41;;;-140.58;32.55
17309;BME280;8772;42.804;23.426;2023-04-01T10:33:54;71512.81;;;-140.58;32.81
17309;BME280;8772;42.804;23.426;2023-04-01T10:36:50;71504.59;;;-140.58;33.81
17309;BME280;8772;42.804;23.426;2023-04-01T10:46:02;71463.59;;;-140.58;34.52
17309;BME280;8772;42.804;23.426;2023-04-01T10:48:51;71465.66;;;-140.58;34.14
17309;BME280;8772;42.804;23.426;2023-04-01T10:51:48;71518.97;;;-140.58;36.37
17309;BME280;8772;42.804;23.426;2023-04-01T10:54:43;71578.41;;;-140.58;36.86
17309;BME280;8772;42.804;23.426;2023-04-01T10:57:29;71605.06;;;-140.58;37.63
17309;BME280;8772;42.804;23.426;2023-04-01T11:00:14;71621.47;;;-140.58;37.38
17309;BME280;8772;42.804;23.426;2023-04-01T11:03:30;71627.63;;;-140.58;37.51
17309;BME280;8772;42.804;23.426;2023-04-01T11:12:39;71598.91;;;-140.58;37.79
17309;BME280;8772;42.804;23.426;2023-04-01T11:15:48;71611.22;;;-140.58;36.94
17309;BME280;8772;42.804;23.426;2023-04-01T11:21:52;71639.91;;;-140.58;37.73
17309;BME280;8772;42.804;23.426;2023-04-01T11:27:29;71697.31;;;-140.58;39.19
17309;BME280;8772;42.804;23.426;2023-04-01T11:30:22;71676.81;;;-140.58;37.88
17309;BME280;8772;42.804;23.426;2023-04-01T11:32:54;71668.63;;;-140.58;37.73
17309;BME280;8772;42.804;23.426;2023-04-01T11:35:53;71668.63;;;-140.58;38.55
17309;BME280;8772;42.804;23.426;2023-04-01T11:38:52;71678.88;;;-140.58;39.29
17309;BME280;8772;42.804;23.426;2023-04-01T11:41:32;71691.16;;;-140.58;40.05
17309;BME280;8772;42.804;23.426;2023-04-01T11:44:13;71705.53;;;-140.58;40.70
17309;BME280;8772;42.804;23.426;2023-04-01T11:46:49;71748.56;;;-140.58;40.42
17309;BME280;8772;42.804;23.426;2023-04-01T11:49:29;71873.63;;;-140.58;43.27
17309;BME280;8772;42.804;23.426;2023-04-01T11:52:26;71996.66;;;-140.58;51.71
17309;BME280;8772;42.804;23.426;2023-04-01T11:55:23;72119.69;;;-140.58;57.94
17309;BME280;8772;42.804;23.426;2023-04-01T11:58:03;72205.81;;;-140.58;62.44
17309;BME280;8772;42.804;23.426;2023-04-01T12:03:46;72369.84;;;-140.58;77.96
17309;BME280;8772;42.804;23.426;2023-04-01T12:06:18;72423.16;;;-140.58;88.32
17309;BME280;8772;42.804;23.426;2023-04-01T12:08:51;72464.16;;;-140.58;88.77
17309;BME280;8772;42.804;23.426;2023-04-01T12:11:27;72478.53;;;-140.58;94.57
17309;BME280;8772;42.804;23.426;2023-04-01T12:14:04;72496.97;;;-140.58;96.44
17309;BME280;8772;42.804;23.426;2023-04-01T12:16:42;72507.25;;;-140.58;97.93
17309;BME280;8772;42.804;23.426;2023-04-01T12:19:18;72484.69;;;-140.58;97.30
17309;BME280;8772;42.804;23.426;2023-04-01T12:21:57;72494.94;;;-140.58;97.29
17309;BME280;8772;42.804;23.426;2023-04-01T12:24:44;72499.03;;;-140.58;100.00
17309;BME280;8772;42.804;23.426;2023-04-01T12:27:33;72509.28;;;-140.58;100.00
17309;BME280;8772;42.804;23.426;2023-04-01T12:30:30;72505.19;;;-140.58;100.00
17309;BME280;8772;42.804;23.426;2023-04-01T12:36:18;72476.47;;;-140.58;100.00
17309;BME280;8772;42.804;23.426;2023-04-01T12:39:07;72468.28;;;-140.58;100.00
17309;BME280;8772;42.804;23.426;2023-04-01T12:41:43;72468.28;;;-140.58;100.00
17309;BME280;8772;42.804;23.426;2023-04-01T12:44:37;72468.28;;;-140.58;100.00
17309;BME280;8772;42.804;23.426;2023-04-01T12:47:30;72453.91;;;-140.58;100.00
17309;BME280;8772;42.804;23.426;2023-04-01T12:50:19;72460.06;;;-140.58;100.00
17309;BME280;8772;42.804;23.426;2023-04-01T12:53:01;72455.97;;;-140.58;100.00
17309;BME280;8772;42.804;23.426;2023-04-01T12:55:38;72447.78;;;-140.58;100.00
17309;BME280;8772;42.804;23.426;2023-04-01T12:58:43;72447.78;;;-140.58;100.00
17309;BME280;8772;42.804;23.426;2023-04-01T13:01:27;72425.22;;;-140.58;99.83
17309;BME280;8772;42.804;23.426;2023-04-01T13:04:25;72435.47;;;-140.58;100.00
17309;BME280;8772;42.804;23.426;2023-04-01T13:07:26;72437.50;;;-140.58;100.00
17309;BME280;8772;42.804;23.426;2023-04-01T13:10:02;72435.47;;;-140.58;100.00
17309;BME280;8772;42.804;23.426;2023-04-01T13:12:45;72441.63;;;-140.58;100.00
17309;BME280;8772;42.804;23.426;2023-04-01T13:15:35;72472.38;;;-140.58;100.00
17309;BME280;8772;42.804;23.426;2023-04-01T13:18:20;72468.28;;;-140.58;100.00
17309;BME280;8772;42.804;23.426;2023-04-01T13:20:54;72445.72;;;-140.58;100.00
17309;BME280;8772;42.804;23.426;2023-04-01T13:23:33;72419.06;;;-140.58;100.00
17309;BME280;8772;42.804;23.426;2023-04-01T13:26:09;72410.84;;;-140.58;100.00
17309;BME280;8772;42.804;23.426;2023-04-01T13:28:39;72406.75;;;-140.58;100.00
17309;BME280;8772;42.804;23.426;2023-04-01T13:31:13;72410.84;;;-140.58;100.00
17309;BME280;8772;42.804;23.426;2023-04-01T13:34:03;72400.59;;;-140.58;100.00
17309;BME280;8772;42.804;23.426;2023-04-01T13:36:38;72363.69;;;-140.58;100.00
17309;BME280;8772;42.804;23.426;2023-04-01T13:39:18;72382.16;;;-140.58;93.99
17309;BME280;8772;42.804;23.426;2023-04-01T13:42:00;72355.50;;;-140.58;98.52
17309;BME280;8772;42.804;23.426;2023-04-01T13:44:35;72339.09;;;-140.58;89.72
17309;BME280;8772;42.804;23.426;2023-04-01T13:53:24;72244.75;;;-140.58;89.30
17309;BME280;8772;42.804;23.426;2023-04-01T13:56:04;72226.31;;;-140.58;89.42
17309;BME280;8772;42.804;23.426;2023-04-01T13:58:56;72226.31;;;-140.58;85.52
17309;BME280;8772;42.804;23.426;2023-04-01T14:01:35;72218.09;;;-140.58;89.90
17309;BME280;8772;42.804;23.426;2023-04-01T14:04:41;72181.19;;;-140.58;86.10
17309;BME280;8772;42.804;23.426;2023-04-01T14:07:21;72183.25;;;-140.58;75.42
17309;BME280;8772;42.804;23.426;2023-04-01T14:09:59;72164.78;;;-140.58;78.28
17309;BME280;8772;42.804;23.426;2023-04-01T14:12:38;72146.34;;;-140.58;78.44
17309;BME280;8772;42.804;23.426;2023-04-01T14:15:25;72132.00;;;-140.58;81.36
17309;BME280;8772;42.804;23.426;2023-04-01T14:18:30;72105.34;;;-140.58;79.59
17309;BME280;8772;42.804;23.426;2023-04-01T14:21:11;72090.97;;;-140.58;81.62
17309;BME280;8772;42.804;23.426;2023-04-01T14:27:26;72074.56;;;-140.58;69.59